Time;durP1;ratioP1;P1;durP2;ratioP2;P2;SDS_P1;SDS_P2;PMS_P1;PMS_P2;Temp;Humidity;BMP_temperature;BMP_pressure;BME280_temperature;BME280_humidity;BME280_pressure;Samples;Min_cycle;Max_cycle;Signal;HPM_P1;HPM_P2
2022/06/06 00:00:03;;;;;;;32.20;23.10;;;;;;;16.07;81.65;99492.63;5012516;28;20516;-71
2022/06/06 00:02:30;;;;;;;29.85;21.05;;;;;;;16.07;81.66;99489.09;5012376;28;20427;-71
2022/06/06 00:04:57;;;;;;;27.23;20.92;;;;;;;16.07;81.78;99481.13;5013528;28;20030;-71
2022/06/06 00:07:24;;;;;;;27.80;21.30;;;;;;;16.09;81.81;99479.22;5012009;28;20034;-71
2022/06/06 00:09:49;;;;;;;31.35;20.80;;;;;;;16.13;81.53;99479.84;5013200;28;20037;-72
2022/06/06 00:12:16;;;;;;;27.73;20.27;;;;;;;16.15;82.02;99484.06;5012997;28;20030;-72
2022/06/06 00:14:42;;;;;;;28.42;21.63;;;;;;;16.15;82.13;99488.53;5011880;28;20034;-72
2022/06/06 00:17:08;;;;;;;25.67;19.38;;;;;;;16.08;81.03;99478.38;5010492;28;20448;-71
2022/06/06 00:19:33;;;;;;;27.63;19.48;;;;;;;16.07;81.35;99474.03;5010826;28;20107;-72
2022/06/06 00:21:59;;;;;;;22.50;16.50;;;;;;;16.08;81.49;99469.53;5010725;28;20124;-70
2022/06/06 00:24:24;;;;;;;31.75;19.52;;;;;;;16.06;80.96;99472.31;5011122;28;20441;-71
2022/06/06 00:26:50;;;;;;;26.33;17.50;;;;;;;16.07;80.97;99473.16;5010747;28;20033;-71
2022/06/06 00:29:17;;;;;;;27.10;18.63;;;;;;;16.04;81.19;99479.56;5006341;28;20438;-72
2022/06/06 00:37:13;;;;;;;20.92;17.30;;;;;;;16.05;81.48;99486.59;4990608;28;20521;-73
2022/06/06 00:39:41;;;;;;;24.90;17.73;;;;;;;15.99;81.16;99492.34;4991055;28;20449;-71
2022/06/06 00:42:18;;;;;;;26.30;17.92;;;;;;;16.00;81.57;99488.75;4990804;28;20053;-71
2022/06/06 00:44:44;;;;;;;26.67;17.10;;;;;;;15.98;81.22;99489.84;4973811;28;22815;-72
2022/06/06 00:47:27;;;;;;;22.77;16.30;;;;;;;15.98;81.21;99498.66;4990410;28;20068;-72
2022/06/06 00:49:56;;;;;;;17.88;13.40;;;;;;;15.98;80.86;99492.50;4991185;28;20072;-71
2022/06/06 00:52:28;;;;;;;17.38;13.35;;;;;;;15.95;80.45;99496.22;4991200;28;20034;-72
2022/06/06 00:54:58;;;;;;;19.63;12.75;;;;;;;15.92;80.35;99500.91;4991148;28;20486;-73
2022/06/06 00:57:29;;;;;;;15.65;11.18;;;;;;;15.92;80.10;99496.44;5000996;28;20442;-71
2022/06/06 00:59:55;;;;;;;16.27;12.18;;;;;;;15.91;79.80;99492.09;5010648;28;20054;-72
2022/06/06 01:02:21;;;;;;;14.85;11.55;;;;;;;15.89;80.07;99502.84;4986300;28;20034;-72
2022/06/06 01:04:47;;;;;;;17.00;11.85;;;;;;;15.89;80.22;99486.06;5010693;28;20034;-71
2022/06/06 01:07:14;;;;;;;20.85;13.23;;;;;;;15.87;80.02;99488.84;5010400;28;20034;-71
2022/06/06 01:09:42;;;;;;;19.08;12.07;;;;;;;15.88;79.99;99484.38;5009899;28;20029;-70
2022/06/06 01:12:11;;;;;;;16.95;12.38;;;;;;;15.84;79.72;99469.59;5011095;28;20116;-73
2022/06/06 01:14:44;;;;;;;20.75;12.02;;;;;;;15.80;79.30;99460.16;5010756;28;20513;-72
2022/06/06 01:17:38;;;;;;;14.38;11.10;;;;;;;15.81;79.52;99456.56;5010138;28;20034;-70
2022/06/06 01:20:30;;;;;;;16.73;10.75;;;;;;;15.80;79.13;99458.38;4974654;28;20491;-72
2022/06/06 01:22:55;;;;;;;16.48;11.00;;;;;;;15.75;79.16;99465.84;5010450;28;20041;-72
2022/06/06 01:25:32;;;;;;;15.57;11.10;;;;;;;15.76;79.86;99464.03;5010451;28;20060;-72
2022/06/06 01:28:03;;;;;;;14.73;10.77;;;;;;;15.76;80.36;99469.34;5009550;28;20048;-72
2022/06/06 01:30:39;;;;;;;14.38;9.50;;;;;;;15.77;79.84;99471.03;5010206;28;20038;-70
2022/06/06 01:33:09;;;;;;;14.95;10.23;;;;;;;15.76;79.89;99461.38;5010114;28;20116;-71
2022/06/06 01:35:39;;;;;;;14.00;9.32;;;;;;;15.74;80.02;99469.47;5010090;28;20037;-72
2022/06/06 01:38:06;;;;;;;12.48;9.27;;;;;;;15.70;80.09;99472.47;5009304;28;20022;-72
2022/06/06 01:41:06;;;;;;;18.80;10.05;;;;;;;15.67;79.90;99479.66;5008597;28;20088;-72
2022/06/06 01:43:44;;;;;;;18.55;10.52;;;;;;;15.59;80.76;99475.91;5005372;28;20038;-72
2022/06/06 01:46:17;;;;;;;12.85;10.00;;;;;;;15.57;80.81;99476.00;5008245;28;20050;-72
2022/06/06 01:48:43;;;;;;;17.90;10.13;;;;;;;15.53;80.97;99479.88;5010459;28;20113;-71
2022/06/06 01:51:11;;;;;;;13.35;10.23;;;;;;;15.53;81.17;99473.69;5011580;28;20038;-72
2022/06/06 01:53:38;;;;;;;15.85;10.60;;;;;;;15.52;81.27;99472.00;5011471;28;20029;-72
2022/06/06 01:56:06;;;;;;;16.52;11.13;;;;;;;15.55;81.33;99461.97;5010326;28;20121;-71
2022/06/06 01:58:33;;;;;;;16.10;10.80;;;;;;;15.56;81.10;99471.66;5012941;28;20385;-72
2022/06/06 02:00:59;;;;;;;14.30;11.07;;;;;;;15.57;81.47;99470.69;5010216;28;20543;-75
2022/06/06 02:03:25;;;;;;;15.05;11.00;;;;;;;15.56;81.15;99469.00;5010445;28;20121;-74
2022/06/06 02:05:50;;;;;;;18.05;11.43;;;;;;;15.53;80.72;99468.38;5009665;28;20040;-71
2022/06/06 02:08:16;;;;;;;14.93;10.20;;;;;;;15.53;80.76;99466.59;4991762;28;20030;-72
2022/06/06 02:10:42;;;;;;;16.35;10.55;;;;;;;15.52;80.49;99461.38;5010146;28;20036;-73
2022/06/06 02:13:07;;;;;;;14.35;11.05;;;;;;;15.53;80.27;99458.63;5011715;28;20026;-71
2022/06/06 02:15:33;;;;;;;18.27;9.95;;;;;;;15.52;79.99;99464.03;5010965;28;20033;-72
2022/06/06 02:17:59;;;;;;;12.70;8.98;;;;;;;15.51;79.69;99465.00;5010455;28;20464;-72
2022/06/06 02:20:29;;;;;;;13.88;9.35;;;;;;;15.50;79.39;99465.97;5010336;28;20037;-71
2022/06/06 02:22:55;;;;;;;14.52;9.82;;;;;;;15.47;78.83;99472.34;5012794;28;20037;-72
2022/06/06 02:25:22;;;;;;;12.27;9.05;;;;;;;15.44;79.03;99461.97;5014007;28;20537;-72
2022/06/06 02:27:48;;;;;;;12.45;9.15;;;;;;;15.42;78.96;99463.88;5013091;28;20062;-72
2022/06/06 02:30:21;;;;;;;13.88;9.68;;;;;;;15.36;78.53;99462.53;5011679;28;20069;-71
2022/06/06 02:32:47;;;;;;;13.50;10.07;;;;;;;15.38;78.94;99457.09;4993546;28;20041;-72
2022/06/06 02:35:16;;;;;;;11.85;9.00;;;;;;;15.41;78.79;99451.56;4993441;28;20030;-72
2022/06/06 02:37:42;;;;;;;16.13;10.07;;;;;;;15.43;78.89;99450.50;4993674;28;20038;-72
2022/06/06 02:40:10;;;;;;;14.38;9.60;;;;;;;15.41;78.58;99449.75;4995027;28;20042;-72
2022/06/06 02:42:35;;;;;;;13.70;10.15;;;;;;;15.37;78.38;99456.25;4993305;28;20493;-72
2022/06/06 02:45:02;;;;;;;14.68;10.40;;;;;;;15.36;78.14;99449.25;4993383;28;20042;-71
2022/06/06 02:47:29;;;;;;;14.20;11.02;;;;;;;15.37;78.04;99450.09;4992847;28;20077;-71
2022/06/06 02:49:54;;;;;;;13.80;10.05;;;;;;;15.40;78.30;99447.19;4992985;28;20038;-71
2022/06/06 02:52:20;;;;;;;13.73;9.98;;;;;;;15.37;78.12;99450.09;4993355;28;20077;-72
2022/06/06 02:54:46;;;;;;;16.25;11.10;;;;;;;15.37;78.04;99444.78;4993294;28;20515;-69
2022/06/06 02:57:11;;;;;;;13.52;10.00;;;;;;;15.39;78.05;99450.84;4992566;28;20042;-73
2022/06/06 02:59:38;;;;;;;11.18;8.98;;;;;;;15.40;77.82;99444.53;4993724;28;20039;-72
2022/06/06 03:02:04;;;;;;;21.25;11.63;;;;;;;15.39;77.41;99441.03;4993326;28;20522;-71
2022/06/06 03:04:30;;;;;;;10.88;9.15;;;;;;;15.37;77.03;99448.28;4993049;28;20068;-72
2022/06/06 03:07:09;;;;;;;16.95;10.25;;;;;;;15.37;77.41;99452.75;4974986;28;20121;-70
2022/06/06 03:10:05;;;;;;;11.38;8.82;;;;;;;15.36;77.30;99456.38;4992707;28;20034;-71
2022/06/06 03:12:45;;;;;;;;;;;;;;;15.30;77.01;99457.66;4993218;28;21075;-72
2022/06/06 03:15:32;;;;;;;13.25;8.80;;;;;;;15.24;77.57;99461.63;4992693;28;19918;-71
2022/06/06 03:21:31;;;;;;;10.40;8.35;;;;;;;15.11;77.55;99467.94;4993030;28;20101;-70
2022/06/06 03:24:32;;;;;;;14.13;8.77;;;;;;;15.05;77.80;99463.09;4992857;28;20061;-71
2022/06/06 03:27:07;;;;;;;17.98;9.80;;;;;;;15.00;77.83;99460.75;4980885;28;20034;-71
2022/06/06 03:29:33;;;;;;;;;;;;;;;14.94;78.10;99464.72;4992875;28;20057;-71
2022/06/06 03:32:05;;;;;;;;;;;;;;;14.92;78.21;99465.78;4975464;28;19949;-71
2022/06/06 03:34:53;;;;;;;16.23;9.13;;;;;;;14.90;78.63;99460.59;4990779;28;20683;-71
2022/06/06 03:37:23;;;;;;;12.30;8.27;;;;;;;14.88;78.09;99474.94;4991469;28;20043;-72
2022/06/06 03:40:10;;;;;;;12.05;8.15;;;;;;;14.86;78.33;99471.53;4992325;28;20037;-71
2022/06/06 03:42:44;;;;;;;11.32;7.93;;;;;;;14.86;78.76;99474.19;4992241;28;20048;-71
2022/06/06 03:45:15;;;;;;;9.23;7.38;;;;;;;14.83;78.68;99483.22;4992280;28;20034;-72
2022/06/06 03:47:56;;;;;;;14.20;10.15;;;;;;;14.84;78.65;99484.06;4974185;28;20562;-71
2022/06/06 03:50:39;;;;;;;13.13;8.45;;;;;;;14.85;78.73;99477.81;4991470;28;20141;-71
2022/06/06 03:53:16;;;;;;;13.73;7.88;;;;;;;14.83;78.80;99469.94;4991943;28;20030;-72
2022/06/06 03:56:13;;;;;;;10.65;7.82;;;;;;;14.85;79.16;99477.81;4991834;28;20031;-72
2022/06/06 03:58:39;;;;;;;9.75;8.00;;;;;;;14.78;79.14;99475.56;4998114;28;20490;-72
2022/06/06 04:01:08;;;;;;;10.18;7.60;;;;;;;14.78;79.10;99469.44;5011325;28;20057;-72
2022/06/06 04:03:35;;;;;;;12.85;8.45;;;;;;;14.76;79.10;99474.84;5011255;28;20105;-71
2022/06/06 04:06:02;;;;;;;14.82;9.15;;;;;;;14.68;79.46;99479.84;5011199;28;20084;-72
2022/06/06 04:08:28;;;;;;;15.07;9.13;;;;;;;14.63;79.66;99475.84;5011517;28;20040;-72
2022/06/06 04:11:24;;;;;;;17.88;9.23;;;;;;;14.64;79.71;99469.56;5011551;28;20432;-72
2022/06/06 04:14:08;;;;;;;;;;;;;;;14.60;80.00;99469.78;4994134;28;20068;-71
2022/06/06 04:16:53;;;;;;;11.32;8.55;;;;;;;14.52;80.19;99461.50;5010481;28;20334;-70
2022/06/06 04:20:12;;;;;;;13.55;8.38;;;;;;;14.52;80.01;99469.47;5010955;28;20088;-71
2022/06/06 04:23:32;;;;;;;9.60;7.57;;;;;;;14.58;80.23;99471.69;4931269;29;20051;-73
2022/06/06 04:26:42;;;;;;;12.05;9.30;;;;;;;14.49;79.51;99477.59;4874077;29;20037;-75
2022/06/06 04:29:39;;;;;;;13.50;8.75;;;;;;;14.47;79.74;99483.97;4971985;28;20034;-73
2022/06/06 04:32:35;;;;;;;16.90;8.93;;;;;;;14.44;79.40;99487.69;4968287;28;20050;-73
2022/06/06 04:35:26;;;;;;;13.70;9.13;;;;;;;14.39;79.92;99495.13;4988279;28;20030;-74
2022/06/06 04:38:20;;;;;;;11.88;7.78;;;;;;;14.39;79.95;99490.66;4974874;28;20031;-73
2022/06/06 04:41:25;;;;;;;10.90;7.28;;;;;;;14.42;79.14;99480.81;4984519;28;20042;-73
2022/06/06 04:44:00;;;;;;;10.00;6.55;;;;;;;14.42;78.92;99488.75;4995439;28;20062;-73
2022/06/06 04:46:57;;;;;;;8.93;6.40;;;;;;;14.45;78.51;99492.06;4992546;28;20038;-74
2022/06/06 04:49:27;;;;;;;9.95;6.90;;;;;;;14.46;77.84;99492.91;4994240;28;20585;-75
2022/06/06 04:51:53;;;;;;;10.68;7.40;;;;;;;14.48;77.64;99489.19;4993539;28;20037;-73
2022/06/06 04:54:22;;;;;;;8.85;6.43;;;;;;;14.49;77.28;99490.03;4974884;28;20039;-73
2022/06/06 04:56:49;;;;;;;8.98;6.80;;;;;;;14.51;77.32;99488.97;4990563;28;20509;-72
2022/06/06 04:59:16;;;;;;;9.60;5.78;;;;;;;14.61;76.61;99486.53;4991519;28;20034;-73
2022/06/06 05:01:41;;;;;;;9.93;6.45;;;;;;;14.70;76.02;99499.16;4991534;28;20126;-73
2022/06/06 05:04:08;;;;;;;8.18;6.20;;;;;;;14.76;75.47;99490.75;4991401;28;20042;-73
2022/06/06 05:07:01;;;;;;;8.75;5.68;;;;;;;14.92;74.74;99506.44;4990660;28;20038;-73
2022/06/06 05:09:50;;;;;;;10.15;6.20;;;;;;;14.93;73.27;99501.97;4991854;28;20049;-73
2022/06/06 05:12:16;;;;;;;9.90;6.20;;;;;;;14.97;73.09;99506.13;4992391;28;20085;-72
2022/06/06 05:14:50;;;;;;;7.93;5.97;;;;;;;15.10;73.09;99501.63;4991840;28;20034;-72
2022/06/06 05:17:43;;;;;;;9.00;5.72;;;;;;;15.24;71.23;99498.81;4990360;28;20060;-73
2022/06/06 05:20:39;;;;;;;9.32;5.68;;;;;;;15.32;70.56;99508.88;4991209;28;20034;-73
2022/06/06 05:23:40;;;;;;;8.32;4.72;;;;;;;15.45;70.45;99516.78;4990129;28;20062;-72
2022/06/06 05:26:24;;;;;;;7.22;4.18;;;;;;;15.51;69.95;99512.84;4948647;28;20104;-73
2022/06/06 05:29:02;;;;;;;11.10;5.10;;;;;;;15.55;68.01;99509.81;4991818;28;20034;-71
2022/06/06 05:31:43;;;;;;;5.15;3.92;;;;;;;15.59;66.46;99503.31;4974114;28;20160;-72
2022/06/06 05:34:23;;;;;;;7.30;4.10;;;;;;;15.87;66.42;99511.91;4991117;28;20038;-71
2022/06/06 05:36:54;;;;;;;7.57;3.90;;;;;;;16.07;65.33;99510.38;4989945;28;20117;-73
2022/06/06 05:39:19;;;;;;;5.50;3.92;;;;;;;16.27;64.79;99516.84;4990810;28;20525;-73
2022/06/06 05:41:56;;;;;;;6.05;3.25;;;;;;;16.37;62.86;99515.19;4990592;28;20043;-73
2022/06/06 05:44:56;;;;;;;4.75;3.60;;;;;;;16.44;63.35;99512.88;4991583;28;20046;-73
2022/06/06 05:47:49;;;;;;;5.97;3.97;;;;;;;16.45;62.88;99523.41;4991683;28;20508;-71
2022/06/06 05:50:20;;;;;;;4.57;2.95;;;;;;;16.45;61.81;99518.06;4991245;28;20723;-72
2022/06/06 05:52:59;;;;;;;5.80;3.10;;;;;;;16.51;61.75;99517.63;5001052;28;20099;-72
2022/06/06 05:55:34;;;;;;;5.35;3.22;;;;;;;16.62;60.84;99515.91;5010287;28;20038;-73
2022/06/06 05:58:40;;;;;;;5.20;3.72;;;;;;;16.51;59.86;99514.06;5009125;28;20068;-73
2022/06/06 06:01:11;;;;;;;5.93;3.78;;;;;;;16.32;60.95;99506.72;5009672;28;20057;-72
2022/06/06 06:04:03;;;;;;;4.82;4.18;;;;;;;16.28;61.34;99513.22;5009801;28;20093;-72
2022/06/06 06:06:41;;;;;;;4.22;2.97;;;;;;;16.24;60.51;99520.59;5008386;28;20702;-72
2022/06/06 06:09:16;;;;;;;4.35;2.97;;;;;;;16.11;61.26;99517.16;5009238;28;20846;-72
2022/06/06 06:12:03;;;;;;;3.97;3.15;;;;;;;16.03;61.19;99523.06;5009718;28;20041;-72
2022/06/06 06:14:38;;;;;;;4.97;4.10;;;;;;;16.10;61.76;99526.97;5009139;28;20710;-74
2022/06/06 06:17:06;;;;;;;5.35;3.88;;;;;;;16.22;61.31;99526.97;5008424;28;20142;-72
2022/06/06 06:19:49;;;;;;;6.85;3.38;;;;;;;16.31;60.49;99528.94;5009215;28;20040;-72
2022/06/06 06:22:17;;;;;;;6.78;3.30;;;;;;;16.21;60.72;99526.13;5009194;28;20042;-72
2022/06/06 06:24:43;;;;;;;4.03;2.50;;;;;;;16.14;60.47;99532.88;5009617;28;20105;-72
2022/06/06 06:27:10;;;;;;;4.40;3.17;;;;;;;16.13;60.59;99533.03;5008909;28;20074;-72
2022/06/06 06:29:35;;;;;;;4.00;2.70;;;;;;;16.14;60.51;99532.88;5005945;28;20126;-72
2022/06/06 06:32:06;;;;;;;6.50;2.75;;;;;;;16.18;59.97;99531.69;5009238;28;20501;-72
2022/06/06 06:34:55;;;;;;;5.50;2.70;;;;;;;16.20;59.53;99529.78;5009195;28;20049;-72
2022/06/06 06:37:21;;;;;;;6.20;2.92;;;;;;;16.51;59.81;99532.72;5008558;28;20037;-71
2022/06/06 06:40:15;;;;;;;4.90;2.70;;;;;;;16.97;58.88;99526.44;5009076;28;20030;-72
2022/06/06 06:42:41;;;;;;;3.83;2.88;;;;;;;17.10;58.36;99534.31;5009280;28;20625;-70
2022/06/06 06:45:08;;;;;;;5.75;2.83;;;;;;;17.11;57.59;99536.00;5009132;28;20041;-73
2022/06/06 06:47:35;;;;;;;3.83;2.72;;;;;;;17.09;55.48;99537.94;5004108;28;20394;-72
2022/06/06 06:50:07;;;;;;;4.82;2.97;;;;;;;17.11;55.90;99549.34;4988814;28;20587;-72
2022/06/06 06:53:00;;;;;;;4.07;2.00;;;;;;;17.11;55.45;99538.69;4989926;28;20101;-72
2022/06/06 06:55:44;;;;;;;2.70;2.10;;;;;;;17.10;56.21;99543.13;4989060;28;20093;-71
2022/06/06 06:58:30;;;;;;;6.20;2.00;;;;;;;17.07;55.49;99547.88;4988943;28;20089;-71
2022/06/06 07:01:01;;;;;;;5.45;2.17;;;;;;;17.14;55.08;99546.41;4988878;28;20034;-71
2022/06/06 07:09:58;;;;;;;4.82;2.50;;;;;;;17.28;53.53;99546.16;4991904;28;20142;-71
2022/06/06 07:12:41;;;;;;;2.47;1.85;;;;;;;17.40;53.53;99544.31;4993168;28;20093;-72
2022/06/06 07:15:22;;;;;;;2.67;1.90;;;;;;;17.53;54.39;99541.50;4992644;28;20045;-71
2022/06/06 07:17:55;;;;;;;8.40;2.40;;;;;;;17.49;53.48;99553.38;4991721;28;20034;-71
2022/06/06 07:20:21;;;;;;;5.38;1.85;;;;;;;17.46;53.16;99548.28;4992442;28;20036;-71
2022/06/06 07:23:05;;;;;;;4.97;2.50;;;;;;;17.68;52.75;99553.53;4992618;28;20350;-71
2022/06/06 07:25:38;;;;;;;3.58;2.03;;;;;;;17.99;51.34;99549.22;4974983;28;20038;-72
2022/06/06 07:28:08;;;;;;;2.88;1.98;;;;;;;18.29;50.85;99552.09;4991715;28;20070;-72
2022/06/06 07:30:39;;;;;;;6.00;2.00;;;;;;;18.38;50.22;99545.94;4992488;28;20664;-72
2022/06/06 07:33:32;;;;;;;6.25;2.20;;;;;;;18.35;51.28;99554.22;4992543;28;20482;-71
2022/06/06 07:36:15;;;;;;;3.78;1.90;;;;;;;18.30;51.69;99549.28;4974331;28;20034;-72
2022/06/06 07:39:02;;;;;;;2.72;2.00;;;;;;;18.37;50.46;99538.94;4992422;28;20399;-72
2022/06/06 07:41:44;;;;;;;4.28;1.90;;;;;;;18.82;49.50;99541.28;4992120;28;20030;-72
2022/06/06 07:44:55;;;;;;;3.55;1.80;;;;;;;18.83;49.12;99540.31;4992434;28;20042;-72
2022/06/06 07:47:53;;;;;;;2.88;1.90;;;;;;;18.94;48.34;99536.69;4973784;28;20038;-72
2022/06/06 07:50:41;;;;;;;4.13;2.10;;;;;;;19.18;48.38;99536.38;4995161;28;20033;-72
2022/06/06 07:53:16;;;;;;;3.50;1.92;;;;;;;19.28;48.27;99531.88;5011782;28;20030;-71
2022/06/06 07:55:52;;;;;;;6.13;2.22;;;;;;;19.26;48.49;99533.84;5011730;28;20045;-72
2022/06/06 07:58:29;;;;;;;5.25;1.80;;;;;;;19.34;48.57;99536.66;5011267;28;20042;-72
2022/06/06 08:01:10;;;;;;;3.08;1.90;;;;;;;19.38;47.79;99538.09;5011640;28;20034;-72
2022/06/06 08:03:48;;;;;;;4.53;1.90;;;;;;;19.50;47.86;99545.00;5011530;28;20160;-71
2022/06/06 08:06:31;;;;;;;5.63;2.10;;;;;;;19.62;48.34;99540.38;5010535;28;20033;-73
2022/06/06 08:09:24;;;;;;;2.22;1.50;;;;;;;19.60;48.62;99533.47;5011356;28;20112;-72
2022/06/06 08:12:13;;;;;;;3.20;1.98;;;;;;;19.46;48.80;99534.72;5010553;28;20034;-71
2022/06/06 08:14:49;;;;;;;7.22;1.90;;;;;;;19.48;49.40;99527.41;5011354;28;20888;-71
2022/06/06 08:17:36;;;;;;;3.10;1.70;;;;;;;19.51;49.25;99532.47;5010615;28;20052;-71
2022/06/06 08:20:29;;;;;;;1.90;1.50;;;;;;;19.61;49.22;99535.16;5010552;28;20112;-71
2022/06/06 08:23:00;;;;;;;5.78;1.85;;;;;;;19.27;49.92;99548.88;5011171;28;20037;-72
2022/06/06 08:25:25;;;;;;;5.25;1.80;;;;;;;18.84;50.95;99560.69;5011004;28;20034;-71
2022/06/06 08:27:51;;;;;;;9.75;2.00;;;;;;;18.53;51.21;99557.13;5009762;28;20033;-71
2022/06/06 08:30:19;;;;;;;2.42;1.42;;;;;;;18.18;53.98;99559.16;5010775;28;20038;-72
2022/06/06 08:32:45;;;;;;;3.30;1.88;;;;;;;17.91;57.02;99561.50;5010779;28;20041;-72
2022/06/06 08:35:11;;;;;;;4.93;2.45;;;;;;;17.60;57.99;99561.34;5011312;28;20029;-72
2022/06/06 08:37:56;;;;;;;2.97;2.08;;;;;;;17.42;60.11;99554.84;5009875;28;20034;-73
2022/06/06 08:40:43;;;;;;;4.10;1.95;;;;;;;17.39;61.49;99554.09;5010513;28;20034;-73
2022/06/06 08:43:42;;;;;;;6.93;3.15;;;;;;;17.38;62.43;99554.25;5010924;28;20042;-72
2022/06/06 08:46:19;;;;;;;2.33;1.65;;;;;;;17.39;62.13;99548.78;5006443;28;20054;-72
2022/06/06 08:49:10;;;;;;;3.75;1.63;;;;;;;17.70;61.52;99545.44;5010593;28;20125;-72
2022/06/06 08:51:48;;;;;;;5.97;2.15;;;;;;;18.37;59.88;99537.09;5010399;28;20049;-72
2022/06/06 08:54:52;;;;;;;3.83;1.92;;;;;;;18.50;56.18;99533.38;5010362;28;20030;-72
2022/06/06 08:57:35;;;;;;;5.30;1.95;;;;;;;18.97;54.42;99529.25;5009445;28;20493;-72
2022/06/06 09:00:16;;;;;;;6.85;2.05;;;;;;;19.59;52.81;99543.34;5010426;28;20038;-72
2022/06/06 09:03:00;;;;;;;5.97;2.20;;;;;;;20.07;51.84;99533.66;4992756;28;20448;-72
2022/06/06 09:06:07;;;;;;;4.95;1.88;;;;;;;19.75;51.81;99541.97;5009958;28;20041;-72
2022/06/06 09:08:51;;;;;;;4.38;2.00;;;;;;;19.20;53.01;99545.09;4980634;28;20064;-71
2022/06/06 09:11:35;;;;;;;3.97;2.17;;;;;;;18.89;54.99;99561.16;5010132;28;20037;-72
2022/06/06 09:14:34;;;;;;;10.00;2.63;;;;;;;18.56;55.89;99552.38;4992719;28;20038;-72
2022/06/06 09:17:31;;;;;;;4.90;1.95;;;;;;;18.31;56.73;99550.13;5009261;28;20057;-72
2022/06/06 09:20:34;;;;;;;3.28;2.13;;;;;;;18.38;56.72;99557.47;5009497;28;20084;-72
2022/06/06 09:23:47;;;;;;;3.63;2.03;;;;;;;18.43;56.55;99554.41;5009870;28;20073;-73
2022/06/06 09:26:23;;;;;;;4.90;2.38;;;;;;;18.20;56.41;99556.38;5009528;28;20041;-72
2022/06/06 09:28:51;;;;;;;6.15;1.88;;;;;;;18.16;56.51;99553.13;4992166;28;20037;-73
2022/06/06 09:31:47;;;;;;;4.90;1.75;;;;;;;18.04;56.46;99548.84;5009795;28;20026;-73
2022/06/06 09:34:40;;;;;;;4.72;1.98;;;;;;;17.90;56.21;99552.66;5010305;28;20091;-72
2022/06/06 09:37:27;;;;;;;2.72;1.92;;;;;;;17.84;56.14;99542.47;5008918;28;20099;-72
2022/06/06 09:40:16;;;;;;;4.00;2.05;;;;;;;17.96;55.56;99545.94;4979788;28;20038;-73
2022/06/06 09:43:04;;;;;;;1.92;1.42;;;;;;;18.08;55.16;99536.06;5009849;28;20429;-72
2022/06/06 09:46:09;;;;;;;5.72;1.92;;;;;;;18.32;54.65;99533.16;5009890;28;20065;-72
2022/06/06 09:49:16;;;;;;;3.55;2.97;;;;;;;19.55;51.72;99531.22;5009554;28;20065;-72
2022/06/06 09:51:56;;;;;;;2.83;2.10;;;;;;;21.01;46.95;99526.47;4972474;28;20057;-71
2022/06/06 10:01:08;;;;;;;2.15;1.70;;;;;;;23.19;42.23;99513.47;5009464;28;20041;-72
2022/06/06 10:03:59;;;;;;;3.17;1.88;;;;;;;24.25;38.42;99516.28;5009637;28;20046;-72
2022/06/06 10:07:03;;;;;;;2.78;1.90;;;;;;;24.80;36.65;99509.28;5008619;28;20037;-72
2022/06/06 10:09:46;;;;;;;3.80;2.13;;;;;;;25.11;36.09;99501.22;4991928;28;20037;-72
2022/06/06 10:12:41;;;;;;;2.03;1.80;;;;;;;25.21;35.81;99499.19;5009609;28;20034;-73
2022/06/06 10:15:37;;;;;;;3.88;2.25;;;;;;;25.18;35.74;99496.84;5009259;28;20113;-73
2022/06/06 10:18:24;;;;;;;3.90;1.65;;;;;;;24.97;36.04;99499.25;5008653;28;20099;-72
2022/06/06 10:20:50;;;;;;;2.53;1.65;;;;;;;24.69;36.55;99493.50;5009453;28;20455;-72
2022/06/06 10:23:24;;;;;;;3.33;1.80;;;;;;;23.97;38.52;99505.88;5009018;28;20125;-72
2022/06/06 10:26:20;;;;;;;3.53;2.10;;;;;;;22.72;40.62;99495.94;5008854;28;20036;-72
2022/06/06 10:29:06;;;;;;;5.63;2.33;;;;;;;22.92;41.16;99496.53;5006763;28;20089;-72
2022/06/06 10:31:52;;;;;;;2.60;1.58;;;;;;;22.76;44.81;99499.97;5009204;28;20517;-73
2022/06/06 10:34:42;;;;;;;2.03;1.75;;;;;;;23.44;43.09;99488.31;5009348;28;20080;-72
2022/06/06 10:37:40;;;;;;;2.28;1.58;;;;;;;24.46;39.77;99483.41;5008666;28;20030;-72
2022/06/06 10:40:41;;;;;;;1.98;1.63;;;;;;;25.25;37.79;99486.16;5008884;28;20037;-72
2022/06/06 10:43:51;;;;;;;2.45;1.52;;;;;;;24.18;39.19;99478.41;5009169;28;20042;-72
2022/06/06 10:46:25;;;;;;;6.47;1.80;;;;;;;22.98;40.63;99484.31;4995831;28;20042;-72
2022/06/06 10:49:11;;;;;;;2.80;1.60;;;;;;;22.11;42.08;99476.25;5009478;28;20034;-72
2022/06/06 10:51:36;;;;;;;2.92;2.17;;;;;;;21.72;42.83;99487.34;5012817;28;20103;-72
2022/06/06 10:54:21;;;;;;;3.67;1.80;;;;;;;21.51;43.91;99473.41;5012645;28;20029;-71
2022/06/06 10:56:46;;;;;;;2.20;1.75;;;;;;;21.59;44.21;99484.22;5011861;28;20656;-72
2022/06/06 10:59:55;;;;;;;4.10;2.03;;;;;;;22.36;43.25;99479.13;5013062;28;20116;-72
2022/06/06 11:02:45;;;;;;;3.65;2.25;;;;;;;22.50;43.44;99482.06;4989284;28;20041;-72
2022/06/06 11:05:33;;;;;;;2.92;1.90;;;;;;;22.02;44.11;99471.81;4989720;28;20033;-72
2022/06/06 11:08:21;;;;;;;2.90;1.65;;;;;;;21.91;44.21;99472.09;5011500;28;20045;-72
2022/06/06 11:10:55;;;;;;;2.67;1.85;;;;;;;21.68;42.66;99466.34;5012589;28;20033;-72
2022/06/06 11:13:29;;;;;;;4.43;1.92;;;;;;;20.97;44.24;99465.28;5010973;28;20563;-72
2022/06/06 11:16:29;;;;;;;3.38;1.90;;;;;;;20.82;45.29;99470.28;5011589;28;20105;-73
2022/06/06 11:19:06;;;;;;;3.25;1.85;;;;;;;21.06;44.51;99466.22;5005349;28;20493;-73
2022/06/06 11:21:47;;;;;;;4.20;2.13;;;;;;;21.20;44.95;99474.59;5011529;28;20042;-73
2022/06/06 11:24:35;;;;;;;2.88;1.55;;;;;;;21.27;41.63;99465.94;5012225;28;20062;-73
2022/06/06 11:27:20;;;;;;;5.78;1.77;;;;;;;21.39;40.80;99457.56;5011628;28;20498;-73
2022/06/06 11:30:06;;;;;;;3.55;1.50;;;;;;;21.63;39.56;99456.94;5012656;28;20073;-73
2022/06/06 11:33:09;;;;;;;2.33;1.50;;;;;;;21.83;39.46;99451.38;5012527;28;20037;-72
2022/06/06 11:36:09;;;;;;;2.70;1.65;;;;;;;21.84;39.68;99445.84;5013046;28;20045;-73
2022/06/06 11:39:02;;;;;;;2.72;1.60;;;;;;;21.70;38.51;99448.25;5013462;28;20258;-72
2022/06/06 11:41:52;;;;;;;1.65;1.38;;;;;;;21.64;38.91;99436.31;5013858;28;20045;-73
2022/06/06 11:44:54;;;;;;;1.98;1.30;;;;;;;21.17;38.69;99450.75;5011904;28;20528;-73
2022/06/06 11:47:41;;;;;;;6.30;2.05;;;;;;;21.43;41.06;99450.88;5011531;28;20046;-72
2022/06/06 11:50:19;;;;;;;5.32;1.90;;;;;;;21.47;41.74;99455.94;5012172;28;20100;-72
2022/06/06 11:53:05;;;;;;;4.22;1.55;;;;;;;21.54;41.89;99447.13;5011968;28;20084;-71
2022/06/06 11:56:03;;;;;;;3.05;1.75;;;;;;;21.63;41.44;99439.97;5009294;28;20084;-71
2022/06/06 11:58:47;;;;;;;2.92;1.35;;;;;;;21.76;41.28;99445.81;5014211;28;20045;-72
2022/06/06 12:01:22;;;;;;;1.95;1.60;;;;;;;21.77;40.34;99447.47;5011748;28;20041;-72
2022/06/06 12:04:17;;;;;;;4.28;1.45;;;;;;;21.96;39.93;99434.88;5011494;28;20048;-72
2022/06/06 12:07:20;;;;;;;2.72;1.20;;;;;;;22.16;39.64;99433.66;5010766;28;20037;-72
2022/06/06 12:10:06;;;;;;;3.75;1.90;;;;;;;22.28;39.89;99436.94;4993111;28;20617;-73
2022/06/06 12:12:41;;;;;;;4.90;1.67;;;;;;;22.39;40.48;99433.97;5011553;28;20152;-72
2022/06/06 12:15:29;;;;;;;2.85;1.52;;;;;;;22.19;39.03;99441.38;5011084;28;20030;-72
2022/06/06 12:18:10;;;;;;;8.82;2.00;;;;;;;21.91;39.81;99447.94;5010582;28;20088;-70
2022/06/06 12:20:53;;;;;;;4.10;1.35;;;;;;;21.81;39.87;99450.72;5011490;28;20366;-72
2022/06/06 12:23:44;;;;;;;2.40;1.50;;;;;;;21.55;39.62;99445.28;5010862;28;20038;-72
2022/06/06 12:26:20;;;;;;;3.53;1.60;;;;;;;21.47;40.28;99459.47;5010005;28;20489;-72
2022/06/06 12:29:09;;;;;;;4.45;1.52;;;;;;;21.29;39.68;99459.44;5000995;28;20457;-72
2022/06/06 12:31:51;;;;;;;2.33;1.48;;;;;;;21.21;40.20;99460.16;4990533;28;20070;-71
2022/06/06 12:34:43;;;;;;;4.05;1.55;;;;;;;21.18;40.25;99465.84;4990963;28;20034;-72
2022/06/06 12:37:16;;;;;;;5.28;1.83;;;;;;;21.30;39.95;99453.06;4990390;28;20061;-72
2022/06/06 12:40:09;;;;;;;2.38;1.45;;;;;;;21.24;39.95;99451.00;4990917;28;20034;-71
2022/06/06 12:42:43;;;;;;;2.47;1.58;;;;;;;21.31;39.98;99445.84;4990925;28;20046;-72
2022/06/06 12:45:21;;;;;;;3.17;1.80;;;;;;;21.49;40.48;99441.38;4991319;28;20089;-72
2022/06/06 12:48:19;;;;;;;4.60;1.92;;;;;;;21.62;39.57;99444.50;4990351;28;20642;-71